Time;durP1;ratioP1;P1;durP2;ratioP2;P2;SDS_P1;SDS_P2;PMS_P1;PMS_P2;Temp;Humidity;BMP_temperature;BMP_pressure;BME280_temperature;BME280_humidity;BME280_pressure;Samples;Min_cycle;Max_cycle;Signal;HPM_P1;HPM_P2
2020/12/13 00:00:26;;;;;;;3.53;3.23;;;9.20;99.90;;;;;;5062761;28;20171;-80
2020/12/13 00:02:56;;;;;;;2.23;2.13;;;9.20;99.90;;;;;;5047438;28;20198;-81
2020/12/13 00:05:22;;;;;;;4.30;3.87;;;9.20;99.90;;;;;;5060194;28;20170;-80
2020/12/13 00:07:49;;;;;;;3.50;3.20;;;9.20;99.90;;;;;;5068678;28;20170;-79
2020/12/13 00:10:15;;;;;;;4.23;3.93;;;9.20;99.90;;;;;;5101651;28;20196;-82
2020/12/13 00:12:40;;;;;;;4.97;3.93;;;9.20;99.90;;;;;;5102487;28;20190;-82
2020/12/13 00:15:06;;;;;;;3.00;2.83;;;9.20;99.90;;;;;;5083583;28;20645;-79
2020/12/13 00:17:32;;;;;;;8.50;4.00;;;9.20;99.90;;;;;;5081429;28;20166;-79
2020/12/13 00:19:58;;;;;;;5.40;4.93;;;9.20;99.90;;;;;;5098723;28;20220;-79
2020/12/13 00:22:23;;;;;;;3.73;3.43;;;9.30;99.90;;;;;;5099248;28;20198;-79
2020/12/13 00:24:49;;;;;;;4.10;2.90;;;9.30;99.90;;;;;;5098472;28;20169;-79
2020/12/13 00:27:15;;;;;;;4.97;4.63;;;9.30;99.90;;;;;;5079817;28;20626;-79
2020/12/13 00:29:41;;;;;;;4.07;3.60;;;9.30;99.90;;;;;;5079504;28;20674;-79
2020/12/13 00:32:07;;;;;;;5.37;4.93;;;9.30;99.90;;;;;;5079330;28;20545;-79
2020/12/13 00:34:33;;;;;;;5.90;4.43;;;9.30;99.90;;;;;;5097377;28;20251;-79
2020/12/13 00:36:59;;;;;;;3.07;2.87;;;9.20;99.90;;;;;;5102395;22;20227;-81
2020/12/13 00:39:25;;;;;;;5.73;5.23;;;9.20;99.90;;;;;;5034948;28;20192;-78
2020/12/13 00:41:54;;;;;;;5.80;3.90;;;9.20;99.90;;;;;;5034724;28;20200;-78
2020/12/13 00:44:21;;;;;;;5.40;5.03;;;9.20;99.90;;;;;;4995711;28;20173;-78
2020/12/13 00:46:47;;;;;;;4.90;4.60;;;9.20;99.90;;;;;;4978971;28;20566;-78
2020/12/13 00:49:13;;;;;;;4.63;3.73;;;9.30;99.90;;;;;;5015052;28;20188;-78
2020/12/13 00:51:39;;;;;;;5.70;4.37;;;9.20;99.90;;;;;;5034916;28;20175;-78
2020/12/13 00:54:04;;;;;;;6.13;5.67;;;9.20;99.90;;;;;;5017980;28;20179;-78
2020/12/13 00:56:30;;;;;;;3.93;3.63;;;9.20;99.90;;;;;;5017911;28;20259;-78
2020/12/13 00:58:56;;;;;;;5.80;2.93;;;9.20;99.90;;;;;;5031688;28;20671;-78
2020/12/13 01:01:21;;;;;;;5.47;3.87;;;9.20;99.90;;;;;;5037479;28;20192;-78
2020/12/13 01:03:47;;;;;;;5.87;5.37;;;9.20;99.90;;;;;;5055369;28;20646;-78
2020/12/13 01:06:22;;;;;;;4.30;3.77;;;9.20;99.90;;;;;;5055524;28;20642;-78
2020/12/13 01:08:48;;;;;;;5.80;4.93;;;9.20;99.90;;;;;;5055221;28;20222;-78
2020/12/13 01:11:19;;;;;;;7.30;5.10;;;9.20;99.90;;;;;;5053419;28;20167;-78
2020/12/13 01:13:45;;;;;;;5.10;4.67;;;9.30;99.90;;;;;;5044321;28;20632;-79
2020/12/13 01:16:10;;;;;;;11.40;5.23;;;9.30;99.90;;;;;;5016105;28;20238;-79
2020/12/13 01:18:36;;;;;;;4.47;4.07;;;9.30;99.90;;;;;;4997820;28;20224;-79
2020/12/13 01:21:01;;;;;;;5.30;4.93;;;9.30;99.90;;;;;;5014055;28;20224;-78
2020/12/13 01:23:27;;;;;;;4.27;3.87;;;9.30;99.90;;;;;;4997730;28;20690;-78
2020/12/13 01:25:52;;;;;;;6.57;4.60;;;9.30;99.90;;;;;;5014205;28;20168;-78
2020/12/13 01:28:18;;;;;;;4.50;4.00;;;9.30;99.90;;;;;;4997578;28;20204;-78
2020/12/13 01:30:43;;;;;;;3.93;3.70;;;9.30;99.90;;;;;;5013870;28;20629;-78
2020/12/13 01:33:09;;;;;;;5.27;3.30;;;9.30;99.90;;;;;;5033890;28;20179;-78
2020/12/13 01:35:35;;;;;;;7.27;6.10;;;9.20;99.90;;;;;;5054955;28;20167;-78
2020/12/13 01:38:00;;;;;;;3.90;3.30;;;9.20;99.90;;;;;;5036957;28;20198;-78
2020/12/13 01:40:26;;;;;;;5.60;5.10;;;9.30;99.90;;;;;;5036793;28;20206;-78
2020/12/13 01:42:51;;;;;;;4.07;3.57;;;9.20;99.90;;;;;;5050632;28;20532;-78
2020/12/13 01:45:18;;;;;;;3.47;3.27;;;9.20;99.90;;;;;;5036707;28;20639;-78
2020/12/13 01:47:46;;;;;;;4.33;4.07;;;9.20;99.90;;;;;;5036662;28;20592;-78
2020/12/13 01:50:26;;;;;;;3.13;2.83;;;9.20;99.90;;;;;;5036532;28;20186;-78
2020/12/13 01:53:12;;;;;;;5.57;5.20;;;9.20;99.90;;;;;;5036687;28;20643;-78
2020/12/13 01:55:40;;;;;;;3.63;3.33;;;9.20;99.90;;;;;;5035789;28;20164;-78
2020/12/13 01:58:08;;;;;;;7.17;4.27;;;9.20;99.90;;;;;;5054200;28;20659;-77
2020/12/13 02:00:34;;;;;;;5.67;4.17;;;9.20;99.90;;;;;;5030559;28;20258;-78
2020/12/13 02:03:03;;;;;;;3.10;2.90;;;9.20;99.90;;;;;;5036418;28;20174;-78
2020/12/13 02:05:30;;;;;;;6.63;5.03;;;9.30;99.90;;;;;;5024183;28;20176;-78
2020/12/13 02:07:57;;;;;;;4.23;3.53;;;9.20;99.90;;;;;;5016519;28;20194;-78
2020/12/13 02:10:22;;;;;;;5.83;5.33;;;9.20;99.90;;;;;;5017318;28;20180;-78
2020/12/13 02:12:48;;;;;;;2.63;2.43;;;9.30;99.90;;;;;;5034162;28;20172;-78
2020/12/13 02:15:14;;;;;;;5.30;4.43;;;9.30;99.90;;;;;;5034061;28;20219;-78
2020/12/13 02:17:40;;;;;;;3.90;3.50;;;9.30;99.90;;;;;;5034043;28;20195;-78
2020/12/13 02:20:12;;;;;;;5.43;4.13;;;9.40;99.90;;;;;;5034084;28;20183;-78
2020/12/13 02:22:42;;;;;;;6.73;5.13;;;9.30;99.90;;;;;;5016252;28;20192;-78
2020/12/13 02:25:13;;;;;;;4.57;4.20;;;9.30;99.90;;;;;;5031201;28;20254;-78
2020/12/13 02:27:38;;;;;;;5.87;4.43;;;9.30;99.90;;;;;;5035965;28;20279;-78
2020/12/13 02:30:06;;;;;;;7.63;3.50;;;9.30;99.90;;;;;;5036014;28;20253;-78
2020/12/13 02:32:32;;;;;;;5.87;5.37;;;9.40;99.90;;;;;;5053803;28;20505;-78
2020/12/13 02:34:57;;;;;;;3.33;3.13;;;9.30;99.90;;;;;;5035871;28;20183;-78
2020/12/13 02:37:23;;;;;;;4.17;2.80;;;9.30;99.90;;;;;;5035860;28;20256;-78
2020/12/13 02:39:49;;;;;;;4.33;3.93;;;9.30;99.90;;;;;;5035675;28;20178;-78
2020/12/13 02:42:15;;;;;;;4.27;3.87;;;9.40;99.90;;;;;;5035758;28;20294;-78
2020/12/13 02:44:40;;;;;;;5.17;4.77;;;9.40;99.90;;;;;;5053437;28;20222;-78
2020/12/13 02:47:06;;;;;;;2.87;2.63;;;9.40;99.90;;;;;;5053568;28;20572;-79
2020/12/13 02:49:32;;;;;;;4.17;3.87;;;9.40;99.90;;;;;;5053599;28;20203;-78
2020/12/13 02:51:58;;;;;;;4.53;4.00;;;9.40;99.90;;;;;;5035717;28;20172;-78
2020/12/13 02:54:23;;;;;;;5.27;4.77;;;9.40;99.90;;;;;;5053634;28;20167;-78
2020/12/13 02:56:49;;;;;;;6.80;4.50;;;9.40;99.90;;;;;;5035519;28;20175;-78
2020/12/13 02:59:14;;;;;;;5.83;3.23;;;9.40;99.90;;;;;;5035657;28;20651;-78
2020/12/13 03:01:40;;;;;;;6.13;4.77;;;9.40;99.90;;;;;;5018778;28;20208;-78
2020/12/13 03:04:05;;;;;;;4.37;3.93;;;9.40;99.90;;;;;;5013791;28;20177;-78
2020/12/13 03:06:31;;;;;;;3.90;3.63;;;9.40;99.90;;;;;;5056007;28;20172;-78
2020/12/13 03:08:56;;;;;;;5.77;4.93;;;9.40;99.90;;;;;;5042086;28;20283;-76
2020/12/13 03:11:22;;;;;;;5.63;5.13;;;9.40;99.90;;;;;;5059996;28;20531;-76
2020/12/13 03:13:50;;;;;;;5.77;5.27;;;9.40;99.90;;;;;;5059919;28;20167;-76
2020/12/13 03:16:16;;;;;;;20.07;5.87;;;9.40;99.90;;;;;;5042060;28;20520;-76
2020/12/13 03:18:41;;;;;;;5.00;4.70;;;9.40;99.90;;;;;;5041923;28;20238;-76
2020/12/13 03:21:07;;;;;;;6.30;4.97;;;9.40;99.90;;;;;;5041982;28;20706;-76
2020/12/13 03:23:33;;;;;;;5.60;5.13;;;9.50;99.90;;;;;;5059850;28;20206;-76
2020/12/13 03:25:58;;;;;;;6.23;3.23;;;9.40;99.90;;;;;;5060141;28;20199;-76
2020/12/13 03:28:24;;;;;;;3.67;3.37;;;9.50;99.90;;;;;;5041905;28;20282;-77
2020/12/13 03:30:49;;;;;;;6.17;5.57;;;9.50;99.90;;;;;;5042268;28;20177;-76
2020/12/13 03:33:15;;;;;;;5.23;4.83;;;9.50;99.90;;;;;;5059935;28;20201;-77
2020/12/13 03:35:40;;;;;;;5.23;4.83;;;9.50;99.90;;;;;;5059949;28;20190;-77
2020/12/13 03:38:06;;;;;;;5.60;5.07;;;9.40;99.90;;;;;;5060001;28;20237;-76
2020/12/13 03:40:31;;;;;;;6.17;4.13;;;9.40;99.90;;;;;;5060006;28;20616;-77
2020/12/13 03:42:57;;;;;;;4.87;4.47;;;9.40;99.90;;;;;;5059745;28;20551;-76
2020/12/13 03:45:22;;;;;;;6.47;3.63;;;9.40;99.90;;;;;;5060082;28;20172;-77
2020/12/13 03:47:48;;;;;;;4.50;3.83;;;9.40;99.90;;;;;;5060074;28;20195;-77
2020/12/13 03:50:13;;;;;;;5.97;5.53;;;9.40;99.90;;;;;;5060030;28;20226;-77
2020/12/13 03:52:39;;;;;;;5.87;5.30;;;9.40;99.90;;;;;;5059709;28;20182;-77
2020/12/13 03:55:04;;;;;;;4.00;3.60;;;9.30;99.90;;;;;;5041746;28;20181;-77
2020/12/13 03:57:30;;;;;;;4.87;3.73;;;9.30;99.90;;;;;;5059769;28;20647;-76
2020/12/13 03:59:56;;;;;;;4.40;4.03;;;9.30;99.90;;;;;;5041662;28;20167;-76
2020/12/13 04:02:21;;;;;;;4.87;4.13;;;9.20;99.90;;;;;;5059406;28;20282;-76
2020/12/13 04:04:47;;;;;;;2.97;2.67;;;9.30;99.90;;;;;;5060057;28;20381;-77
2020/12/13 04:07:12;;;;;;;8.73;5.83;;;9.30;99.90;;;;;;5041661;28;20175;-76
2020/12/13 04:09:38;;;;;;;4.57;4.27;;;9.30;99.90;;;;;;5038053;28;20640;-76
2020/12/13 04:12:03;;;;;;;3.87;3.43;;;9.30;99.90;;;;;;5038138;28;20180;-76
2020/12/13 04:14:29;;;;;;;2.60;2.40;;;9.30;99.90;;;;;;5054919;28;20202;-77
2020/12/13 04:16:55;;;;;;;6.37;5.87;;;9.30;99.90;;;;;;5037686;28;20176;-77
2020/12/13 04:19:20;;;;;;;4.80;3.77;;;9.20;99.90;;;;;;5056385;28;20171;-77
2020/12/13 04:21:46;;;;;;;6.37;5.00;;;9.30;99.90;;;;;;5056930;28;20215;-77
2020/12/13 04:24:12;;;;;;;6.80;4.77;;;9.20;99.90;;;;;;5056576;28;20698;-76
2020/12/13 04:26:37;;;;;;;7.03;4.87;;;9.20;99.90;;;;;;5056336;28;20530;-76
2020/12/13 04:29:03;;;;;;;5.37;4.97;;;9.20;99.90;;;;;;5056213;28;20693;-77
2020/12/13 04:31:28;;;;;;;3.43;3.13;;;9.20;99.90;;;;;;5056253;28;20575;-77
2020/12/13 04:33:54;;;;;;;10.27;6.20;;;9.20;99.90;;;;;;5056244;28;20186;-76
2020/12/13 04:36:19;;;;;;;4.40;4.00;;;9.20;99.90;;;;;;5056165;28;20579;-77
2020/12/13 04:38:45;;;;;;;5.73;5.33;;;9.20;99.90;;;;;;5055990;28;20697;-77
2020/12/13 04:41:12;;;;;;;4.33;4.07;;;9.30;99.90;;;;;;5037968;28;20218;-76
2020/12/13 04:43:39;;;;;;;4.63;3.77;;;9.30;99.90;;;;;;5055874;28;20170;-76
2020/12/13 04:46:07;;;;;;;7.23;5.50;;;9.20;99.90;;;;;;5037958;28;20289;-76
2020/12/13 04:48:33;;;;;;;5.53;5.03;;;9.20;99.90;;;;;;5037758;28;20187;-77
2020/12/13 04:50:59;;;;;;;3.67;3.33;;;9.20;99.90;;;;;;5055710;28;20168;-76
2020/12/13 04:53:28;;;;;;;6.27;4.13;;;9.20;99.90;;;;;;5055740;28;20265;-77
2020/12/13 04:55:55;;;;;;;3.90;3.37;;;9.20;99.90;;;;;;5055766;28;20164;-76
2020/12/13 04:58:23;;;;;;;4.37;3.97;;;9.30;99.90;;;;;;5055523;28;20183;-77
2020/12/13 05:00:56;;;;;;;9.53;5.97;;;9.20;99.90;;;;;;5037412;28;20223;-76
2020/12/13 05:03:23;;;;;;;4.97;4.40;;;9.20;99.90;;;;;;5055555;28;20152;-76
2020/12/13 05:05:49;;;;;;;5.27;4.73;;;9.30;99.90;;;;;;5055500;28;20174;-77
2020/12/13 05:08:15;;;;;;;6.20;5.40;;;9.30;99.90;;;;;;5055260;28;20176;-76
2020/12/13 05:10:41;;;;;;;2.60;2.37;;;9.30;99.90;;;;;;5055401;28;20586;-77
2020/12/13 05:13:07;;;;;;;5.70;5.13;;;9.30;99.90;;;;;;5037397;28;20168;-77
2020/12/13 05:15:35;;;;;;;5.70;3.73;;;9.30;99.90;;;;;;5055005;28;20263;-76
2020/12/13 05:18:01;;;;;;;9.40;5.03;;;9.30;99.90;;;;;;5055753;28;20175;-76
2020/12/13 05:20:27;;;;;;;7.83;4.60;;;9.30;99.90;;;;;;5055130;28;20523;-76
2020/12/13 05:22:55;;;;;;;4.07;3.77;;;9.30;99.90;;;;;;5055099;28;20160;-77
2020/12/13 05:25:31;;;;;;;8.13;4.87;;;9.30;99.90;;;;;;5055176;28;20168;-76
2020/12/13 05:28:01;;;;;;;6.33;4.10;;;9.30;99.90;;;;;;5036978;28;20187;-76
2020/12/13 05:30:31;;;;;;;9.03;5.60;;;9.30;99.90;;;;;;5037289;28;20178;-77
2020/12/13 05:33:05;;;;;;;5.83;4.43;;;9.30;99.90;;;;;;5037084;28;20164;-76
2020/12/13 05:35:30;;;;;;;5.20;4.23;;;9.30;99.90;;;;;;5055140;28;20203;-76
2020/12/13 05:37:56;;;;;;;6.10;3.67;;;9.20;99.90;;;;;;5036806;28;20207;-77
2020/12/13 05:40:23;;;;;;;6.83;5.63;;;9.30;99.90;;;;;;5036969;28;20175;-76
2020/12/13 05:42:58;;;;;;;4.63;4.20;;;9.30;99.90;;;;;;5053058;28;20223;-76
2020/12/13 05:45:36;;;;;;;10.83;6.27;;;9.30;99.90;;;;;;5017147;28;20178;-76
2020/12/13 05:48:22;;;;;;;11.20;5.60;;;9.30;99.90;;;;;;5034644;28;20188;-76
2020/12/13 05:53:16;;;;;;;8.43;4.67;;;9.40;99.90;;;;;;5034845;28;20168;-76
2020/12/13 05:55:43;;;;;;;5.47;4.10;;;9.40;99.90;;;;;;5034561;28;20175;-76
2020/12/13 05:58:08;;;;;;;5.53;5.20;;;9.40;99.90;;;;;;5034484;28;20197;-76
2020/12/13 06:00:34;;;;;;;5.80;4.70;;;9.40;99.90;;;;;;5034617;28;20698;-77
2020/12/13 06:03:03;;;;;;;7.40;6.73;;;9.40;99.90;;;;;;5016917;28;20164;-78
2020/12/13 06:05:35;;;;;;;7.80;5.20;;;9.40;99.90;;;;;;5034383;28;20171;-78
2020/12/13 06:08:03;;;;;;;3.53;3.33;;;9.40;99.90;;;;;;5015370;28;20282;-78
2020/12/13 06:10:33;;;;;;;4.67;4.00;;;9.40;99.90;;;;;;5017553;28;20182;-78
2020/12/13 06:13:08;;;;;;;5.23;4.17;;;9.40;99.90;;;;;;5016486;28;20233;-78
2020/12/13 06:15:34;;;;;;;12.57;7.33;;;9.40;99.90;;;;;;5033064;28;20172;-78
2020/12/13 06:18:02;;;;;;;5.30;4.80;;;9.30;99.90;;;;;;5016717;28;20184;-78
2020/12/13 06:20:28;;;;;;;6.93;4.00;;;9.30;99.90;;;;;;5034371;28;20532;-78
2020/12/13 06:22:55;;;;;;;7.00;5.47;;;9.30;99.90;;;;;;5034363;28;20222;-78
2020/12/13 06:25:21;;;;;;;7.07;6.50;;;9.30;99.90;;;;;;5016514;28;20547;-78
2020/12/13 06:27:51;;;;;;;4.60;4.20;;;9.30;99.90;;;;;;5016346;28;20272;-78
2020/12/13 06:30:18;;;;;;;6.63;5.93;;;9.40;99.90;;;;;;5031167;28;20172;-78
2020/12/13 06:32:46;;;;;;;4.10;3.43;;;9.40;99.90;;;;;;5007886;28;20220;-78
2020/12/13 06:35:13;;;;;;;10.17;5.07;;;9.30;99.90;;;;;;5014309;28;20256;-78
2020/12/13 06:37:38;;;;;;;5.87;5.30;;;9.30;99.90;;;;;;5014849;28;20217;-76
2020/12/13 06:40:06;;;;;;;7.53;6.43;;;9.30;99.90;;;;;;5013585;28;20660;-77
2020/12/13 06:42:40;;;;;;;8.10;3.90;;;9.30;99.90;;;;;;4996303;28;20632;-76
2020/12/13 06:45:12;;;;;;;8.07;6.10;;;9.30;99.90;;;;;;5014125;28;20176;-76
2020/12/13 06:47:40;;;;;;;6.20;5.40;;;9.30;99.90;;;;;;5014270;28;20231;-77
2020/12/13 06:50:08;;;;;;;5.83;4.97;;;9.40;99.90;;;;;;4996387;28;20207;-77
2020/12/13 06:52:34;;;;;;;6.77;4.33;;;9.30;99.90;;;;;;4996359;28;20173;-76
2020/12/13 06:55:05;;;;;;;5.17;4.67;;;9.30;99.90;;;;;;5014058;28;20195;-77
2020/12/13 06:57:33;;;;;;;6.13;5.53;;;9.40;99.90;;;;;;4996321;28;20196;-77
2020/12/13 07:00:06;;;;;;;7.83;6.13;;;9.40;99.90;;;;;;5013931;28;20176;-77
2020/12/13 07:02:46;;;;;;;5.80;5.40;;;9.30;99.90;;;;;;5014106;28;20184;-76
2020/12/13 07:05:13;;;;;;;3.83;3.03;;;9.30;99.90;;;;;;5013880;28;20625;-77
2020/12/13 07:07:40;;;;;;;8.07;6.63;;;9.40;99.90;;;;;;4996297;28;20219;-76
2020/12/13 07:10:07;;;;;;;5.50;5.00;;;9.30;99.90;;;;;;5013739;28;20181;-77
2020/12/13 07:12:34;;;;;;;4.83;3.77;;;9.30;99.90;;;;;;4996241;28;20172;-77
2020/12/13 07:14:59;;;;;;;6.57;4.47;;;9.30;99.90;;;;;;5013625;28;20173;-77
2020/12/13 07:17:30;;;;;;;4.37;3.93;;;9.30;99.90;;;;;;5012591;28;20283;-76
2020/12/13 07:19:58;;;;;;;9.73;4.77;;;9.40;99.90;;;;;;5013588;28;20211;-76
2020/12/13 07:22:32;;;;;;;7.40;6.77;;;9.40;99.90;;;;;;5013808;28;20275;-77
2020/12/13 07:24:59;;;;;;;6.13;5.57;;;9.30;99.90;;;;;;5013971;28;20157;-77
2020/12/13 07:27:26;;;;;;;5.77;4.53;;;9.40;99.90;;;;;;5013760;28;20664;-77
2020/12/13 07:29:55;;;;;;;4.60;3.87;;;9.40;99.90;;;;;;5013603;28;20657;-77
2020/12/13 07:32:22;;;;;;;5.13;4.67;;;9.40;99.90;;;;;;5013767;28;20169;-77
2020/12/13 07:34:48;;;;;;;11.83;3.97;;;9.30;99.90;;;;;;5013875;28;20568;-77
2020/12/13 07:37:16;;;;;;;6.30;5.83;;;9.30;99.90;;;;;;4995734;28;20180;-79
2020/12/13 07:39:41;;;;;;;5.03;4.00;;;9.30;99.90;;;;;;4995823;28;20514;-78
2020/12/13 07:42:08;;;;;;;3.33;3.10;;;9.30;99.90;;;;;;5013297;28;20204;-79
2020/12/13 07:44:34;;;;;;;6.40;4.67;;;9.30;99.90;;;;;;5029391;28;20180;-79
2020/12/13 07:46:59;;;;;;;4.87;4.03;;;9.30;99.90;;;;;;5031747;28;20168;-82
2020/12/13 07:49:25;;;;;;;7.43;4.30;;;9.40;99.90;;;;;;5031806;28;20263;-79
2020/12/13 07:51:53;;;;;;;4.63;4.23;;;9.40;99.90;;;;;;5031876;28;20263;-79
2020/12/13 07:54:21;;;;;;;7.13;5.87;;;9.40;99.90;;;;;;5037171;28;20202;-80
2020/12/13 07:56:49;;;;;;;10.68;6.60;;;9.40;99.90;;;;;;5036937;28;20417;-82
2020/12/13 07:59:20;;;;;;;4.80;4.40;;;9.40;99.90;;;;;;5016961;28;20235;-79
2020/12/13 08:01:48;;;;;;;4.33;3.93;;;9.30;99.90;;;;;;5018002;28;20192;-79
2020/12/13 08:04:14;;;;;;;2.97;2.77;;;9.30;99.90;;;;;;5017987;28;20172;-80
2020/12/13 08:06:41;;;;;;;5.43;4.80;;;9.40;99.90;;;;;;5024134;28;20203;-78
2020/12/13 08:09:11;;;;;;;5.23;4.83;;;9.40;99.90;;;;;;5036938;28;20185;-78
2020/12/13 08:11:37;;;;;;;4.67;4.27;;;9.40;99.90;;;;;;5019892;28;20168;-79
2020/12/13 08:14:05;;;;;;;4.03;3.73;;;9.40;99.90;;;;;;5037206;28;20164;-78
2020/12/13 08:16:32;;;;;;;3.90;3.37;;;9.40;99.90;;;;;;5037846;28;20160;-79
2020/12/13 08:19:15;;;;;;;4.77;3.57;;;9.40;99.90;;;;;;5037692;28;20192;-78
2020/12/13 08:22:07;;;;;;;3.87;3.43;;;9.40;99.90;;;;;;5037168;28;20196;-77
2020/12/13 08:24:33;;;;;;;3.73;3.43;;;9.40;99.90;;;;;;5018975;28;20164;-80
2020/12/13 08:27:01;;;;;;;4.03;3.47;;;9.40;99.90;;;;;;5035938;28;20161;-78
2020/12/13 08:29:31;;;;;;;8.67;5.10;;;9.50;99.90;;;;;;5022295;28;20172;-77
2020/12/13 08:31:57;;;;;;;3.27;3.00;;;9.50;99.90;;;;;;4998770;28;20169;-78
2020/12/13 08:34:30;;;;;;;4.73;3.93;;;9.50;99.90;;;;;;4998919;28;20172;-78
2020/12/13 08:36:59;;;;;;;3.27;2.77;;;9.40;99.90;;;;;;5015488;28;20181;-77
2020/12/13 08:39:33;;;;;;;7.37;5.70;;;9.40;99.90;;;;;;5016411;28;20173;-76
2020/12/13 08:42:00;;;;;;;5.70;3.87;;;9.50;99.90;;;;;;5014705;28;20212;-78
2020/12/13 08:44:28;;;;;;;5.13;4.37;;;9.40;99.90;;;;;;5015881;28;20161;-78
2020/12/13 08:46:56;;;;;;;4.37;3.90;;;9.40;99.90;;;;;;5021976;28;20168;-78
2020/12/13 08:49:27;;;;;;;5.73;5.23;;;9.50;99.90;;;;;;5018205;28;20168;-78
2020/12/13 08:51:53;;;;;;;5.87;5.37;;;9.40;99.90;;;;;;5017900;28;20176;-78
2020/12/13 08:54:18;;;;;;;4.13;3.73;;;9.40;99.90;;;;;;5018117;28;20199;-78
2020/12/13 08:56:50;;;;;;;4.00;2.63;;;9.40;99.90;;;;;;5036063;28;20173;-78
2020/12/13 08:59:21;;;;;;;4.47;4.13;;;9.40;99.90;;;;;;5039054;28;20270;-78
2020/12/13 09:02:02;;;;;;;4.40;4.10;;;9.40;99.90;;;;;;5055589;28;20556;-78
2020/12/13 09:04:30;;;;;;;3.63;3.33;;;9.30;99.90;;;;;;5046854;28;20155;-78
2020/12/13 09:06:59;;;;;;;4.40;4.10;;;9.40;99.90;;;;;;5055217;28;20164;-78
2020/12/13 09:09:30;;;;;;;4.23;3.53;;;9.40;99.90;;;;;;5055395;28;20195;-78
2020/12/13 09:11:56;;;;;;;4.63;2.20;;;9.30;99.90;;;;;;5056983;28;20614;-78
2020/12/13 09:14:34;;;;;;;3.13;2.93;;;9.30;99.90;;;;;;5039969;28;20535;-77
2020/12/13 09:17:00;;;;;;;4.67;4.37;;;9.30;99.90;;;;;;5039887;28;20167;-78
2020/12/13 09:19:27;;;;;;;3.53;2.43;;;9.30;99.90;;;;;;5055528;28;20198;-78
2020/12/13 09:22:00;;;;;;;4.37;3.97;;;9.30;99.90;;;;;;5055080;28;20217;-77
2020/12/13 09:24:34;;;;;;;8.30;4.73;;;9.40;99.90;;;;;;5037305;28;20163;-77
2020/12/13 09:27:18;;;;;;;5.13;4.63;;;9.30;99.90;;;;;;5037237;28;20675;-77
2020/12/13 09:29:43;;;;;;;2.77;2.67;;;9.30;99.90;;;;;;5055020;28;20608;-77
2020/12/13 09:32:09;;;;;;;3.17;1.80;;;9.20;99.90;;;;;;5036994;28;20178;-77
2020/12/13 09:34:36;;;;;;;3.20;2.97;;;9.20;99.90;;;;;;5054904;28;20174;-77
2020/12/13 09:37:02;;;;;;;4.50;3.60;;;9.30;99.90;;;;;;5055201;28;20175;-79
2020/12/13 09:39:29;;;;;;;3.80;3.07;;;9.30;99.90;;;;;;5055473;28;20168;-78
2020/12/13 09:41:55;;;;;;;2.73;2.57;;;9.20;99.90;;;;;;5036779;28;20249;-77
2020/12/13 09:44:22;;;;;;;2.30;2.20;;;9.30;99.90;;;;;;5036755;28;20163;-78
2020/12/13 09:46:47;;;;;;;3.23;3.03;;;9.30;99.90;;;;;;5036357;28;20634;-78
2020/12/13 09:49:13;;;;;;;4.77;3.80;;;9.30;99.90;;;;;;5054307;28;20203;-78
2020/12/13 09:51:38;;;;;;;2.97;2.77;;;9.20;99.90;;;;;;5036568;28;20631;-78
2020/12/13 09:54:04;;;;;;;4.90;4.53;;;9.20;99.90;;;;;;5036642;28;20218;-78
2020/12/13 09:56:29;;;;;;;2.10;2.00;;;9.20;99.90;;;;;;5054498;28;20174;-78
2020/12/13 09:58:55;;;;;;;2.20;2.00;;;9.20;99.90;;;;;;5054928;28;20227;-78
2020/12/13 10:01:20;;;;;;;3.73;3.33;;;9.20;99.90;;;;;;5055066;28;20201;-77
2020/12/13 10:03:49;;;;;;;2.00;1.90;;;9.20;99.90;;;;;;5054471;28;20152;-79
2020/12/13 10:09:00;;;;;;;6.60;3.50;;;9.30;99.90;;;;;;5054721;28;20658;-78
2020/12/13 10:11:27;;;;;;;3.23;2.30;;;9.20;99.90;;;;;;5036484;28;20177;-78
2020/12/13 10:13:53;;;;;;;4.40;3.40;;;9.10;99.90;;;;;;5054424;28;20171;-77
2020/12/13 10:16:18;;;;;;;3.17;2.90;;;9.20;99.90;;;;;;5035643;28;20175;-78
2020/12/13 10:18:44;;;;;;;2.73;1.90;;;9.20;99.90;;;;;;5036327;28;20233;-78
2020/12/13 10:21:09;;;;;;;3.73;3.50;;;9.20;99.90;;;;;;5036176;28;20206;-78
2020/12/13 10:23:35;;;;;;;6.00;2.87;;;9.20;99.90;;;;;;5053960;28;20171;-80
2020/12/13 10:26:00;;;;;;;3.13;2.93;;;9.30;99.90;;;;;;5035979;28;20230;-77
2020/12/13 10:28:26;;;;;;;2.73;1.73;;;9.30;99.90;;;;;;5054094;28;20269;-79
2020/12/13 10:30:52;;;;;;;2.67;2.57;;;9.30;99.90;;;;;;5053853;28;20163;-79
2020/12/13 10:33:18;;;;;;;2.80;2.60;;;9.30;99.90;;;;;;5035945;28;20267;-80
2020/12/13 10:35:45;;;;;;;1.30;1.30;;;9.30;99.90;;;;;;5053603;28;20175;-81
2020/12/13 10:38:11;;;;;;;2.77;1.97;;;9.30;99.90;;;;;;5035579;28;20696;-79
2020/12/13 10:40:39;;;;;;;4.17;3.83;;;9.30;99.90;;;;;;5053667;28;20201;-79
2020/12/13 10:43:05;;;;;;;1.30;1.23;;;9.30;99.90;;;;;;5053721;28;20160;-79
2020/12/13 10:45:32;;;;;;;3.10;2.37;;;9.30;99.90;;;;;;5053489;28;20168;-79
2020/12/13 10:47:57;;;;;;;3.10;2.90;;;9.40;99.90;;;;;;5053511;28;20198;-79
2020/12/13 10:50:23;;;;;;;2.80;2.60;;;9.40;99.90;;;;;;5054142;28;20180;-78
2020/12/13 10:52:48;;;;;;;2.63;2.30;;;9.40;99.90;;;;;;5054457;28;20217;-77
2020/12/13 10:55:16;;;;;;;3.80;3.50;;;9.40;99.90;;;;;;5053807;28;20163;-78
2020/12/13 10:57:42;;;;;;;1.63;1.53;;;9.30;99.90;;;;;;5053529;28;20583;-78
2020/12/13 11:00:10;;;;;;;4.37;2.60;;;9.40;99.90;;;;;;5035568;28;20175;-78
2020/12/13 11:02:35;;;;;;;2.00;1.90;;;9.40;99.90;;;;;;5053337;28;20191;-78
2020/12/13 11:05:01;;;;;;;7.70;4.10;;;9.30;99.90;;;;;;5035793;28;20167;-78
2020/12/13 11:07:26;;;;;;;4.40;2.87;;;9.40;99.90;;;;;;5053497;28;20187;-77
2020/12/13 11:09:52;;;;;;;4.77;3.50;;;9.30;99.90;;;;;;5053509;28;20175;-77
2020/12/13 11:12:18;;;;;;;2.00;1.90;;;9.30;99.90;;;;;;5035907;28;20186;-76
2020/12/13 11:14:43;;;;;;;2.80;2.60;;;9.40;99.90;;;;;;5054606;28;20229;-79
2020/12/13 11:17:09;;;;;;;7.13;3.17;;;9.40;99.90;;;;;;5053107;28;20237;-79
2020/12/13 11:19:34;;;;;;;2.77;1.63;;;9.50;99.90;;;;;;5035253;28;20642;-79
2020/12/13 11:22:00;;;;;;;2.00;1.33;;;9.40;99.90;;;;;;5035209;28;20218;-79
2020/12/13 11:24:25;;;;;;;1.73;1.63;;;9.40;99.90;;;;;;5053474;28;20570;-79
2020/12/13 11:26:51;;;;;;;4.47;2.07;;;9.40;99.90;;;;;;5054590;28;20271;-81
2020/12/13 11:29:17;;;;;;;1.57;1.47;;;9.50;99.90;;;;;;5057242;28;20547;-81
2020/12/13 11:31:42;;;;;;;1.67;1.57;;;9.50;99.90;;;;;;5057301;28;20179;-81
2020/12/13 11:34:08;;;;;;;2.80;1.73;;;9.40;99.90;;;;;;5039078;28;20175;-81
2020/12/13 11:36:33;;;;;;;2.43;2.33;;;9.40;99.90;;;;;;5039050;28;20179;-82
2020/12/13 11:38:59;;;;;;;1.93;1.40;;;9.40;99.90;;;;;;5038889;28;20219;-82
2020/12/13 11:41:28;;;;;;;4.67;3.30;;;9.40;99.90;;;;;;5038894;28;20733;-81
2020/12/13 11:43:55;;;;;;;1.47;1.37;;;9.40;99.90;;;;;;5039715;28;20175;-81
2020/12/13 11:46:21;;;;;;;1.87;1.70;;;9.40;99.90;;;;;;5056924;28;20592;-81
2020/12/13 11:48:47;;;;;;;1.80;1.70;;;9.50;99.90;;;;;;5038770;28;20230;-81
2020/12/13 11:51:12;;;;;;;1.27;1.20;;;9.50;99.90;;;;;;5038829;28;20186;-81
2020/12/13 11:53:38;;;;;;;2.30;1.53;;;9.50;99.90;;;;;;5058106;28;20184;-81
2020/12/13 11:56:04;;;;;;;2.80;1.97;;;9.50;99.90;;;;;;5038691;28;20183;-81
2020/12/13 11:58:29;;;;;;;1.47;1.37;;;9.50;99.90;;;;;;5038575;28;20191;-80
2020/12/13 12:00:55;;;;;;;1.17;1.17;;;9.50;99.90;;;;;;5056685;28;20639;-80
2020/12/13 12:03:20;;;;;;;1.47;1.37;;;9.50;99.90;;;;;;5038559;28;20171;-80
2020/12/13 12:05:46;;;;;;;2.07;1.93;;;9.50;99.90;;;;;;5056407;28;20219;-80
2020/12/13 12:08:11;;;;;;;1.67;1.57;;;9.40;99.90;;;;;;5056291;28;20258;-80
2020/12/13 12:10:37;;;;;;;1.57;1.47;;;9.40;99.90;;;;;;5056614;28;20746;-79
2020/12/13 12:13:03;;;;;;;1.70;1.07;;;9.50;99.90;;;;;;5038419;28;20205;-79
2020/12/13 12:15:28;;;;;;;1.10;1.10;;;9.50;99.90;;;;;;5056240;28;20164;-80
2020/12/13 12:17:55;;;;;;;1.07;1.07;;;9.50;99.90;;;;;;5038329;28;20298;-80
2020/12/13 12:20:26;;;;;;;2.70;1.43;;;9.50;99.90;;;;;;5038199;28;20267;-78
2020/12/13 12:22:55;;;;;;;1.97;1.40;;;9.50;99.90;;;;;;5038243;28;20656;-84
2020/12/13 12:25:20;;;;;;;1.53;1.43;;;9.60;99.90;;;;;;5056064;28;20243;-81
2020/12/13 12:27:46;;;;;;;0.90;0.90;;;9.60;99.90;;;;;;5055975;28;20222;-79
2020/12/13 12:30:13;;;;;;;1.03;1.00;;;9.60;99.90;;;;;;5038332;28;20172;-80
2020/12/13 12:32:39;;;;;;;0.67;0.67;;;9.60;99.90;;;;;;5056021;28;20148;-77
2020/12/13 12:35:05;;;;;;;0.60;0.60;;;9.70;99.90;;;;;;5056084;28;20178;-78
2020/12/13 12:37:34;;;;;;;5.77;3.27;;;9.60;99.90;;;;;;5055666;28;20621;-79
2020/12/13 12:40:00;;;;;;;1.43;1.33;;;9.70;99.90;;;;;;5055536;28;20167;-81
2020/12/13 12:42:25;;;;;;;1.67;1.57;;;9.70;99.90;;;;;;5055725;28;20192;-82
2020/12/13 12:55:25;;;;;;;0.60;0.47;;;9.70;99.90;;;;;;5056152;28;20170;-84
2020/12/13 12:57:51;;;;;;;0.93;0.93;;;9.70;99.90;;;;;;5037412;28;20282;-79
2020/12/13 13:02:46;;;;;;;1.37;0.90;;;9.60;99.90;;;;;;5055289;28;20199;-80
2020/12/13 13:05:18;;;;;;;1.17;1.17;;;9.60;99.90;;;;;;5055234;28;20164;-80
2020/12/13 13:07:45;;;;;;;0.37;0.37;;;9.60;99.90;;;;;;5037190;28;20192;-79
2020/12/13 13:10:20;;;;;;;1.43;0.57;;;9.60;99.90;;;;;;5055387;28;20525;-80
2020/12/13 13:12:45;;;;;;;0.30;0.30;;;9.70;99.90;;;;;;5037540;28;20167;-79
2020/12/13 13:15:28;;;;;;;1.43;1.33;;;9.70;99.90;;;;;;5037296;28;20721;-79